Serra Negra, Brazil
Current Conditions -  °F | °C
As of 1:00 PM on Saturday 22 Nov 2014 (Local Time) from SBQV Reporting Station
Broken Clouds Broken Clouds  
Wind Chill: 82°   Ceiling: 2000
Heat Index: 85°   Visibility: 6mi
Dew Point: 68°   Wind: 9mph
Humidity: 62%   Direction: 70°ENE
Pressure: 30.06"   Gusts: NA
Location:  12.03°S, 43°W
Report Text: SBQV 221600Z 07008KT 9999 BKN020 28/20 Q1018
Loading
Personal Weather Stations






























Interactive Weather Map New forecast layout! Learn more

10-Day Weather Forecast

Advertisements
Track Severe Weather on mobile